createdAt,value
2018-04-19T00:00:11.686Z,13.02
2018-04-19T00:01:11.786Z,12.99
2018-04-19T00:02:11.885Z,12.92
2018-04-19T00:03:11.981Z,12.96
2018-04-19T00:04:12.073Z,12.93
2018-04-19T00:05:12.171Z,12.92
2018-04-19T00:06:12.268Z,12.85
2018-04-19T00:07:12.366Z,12.87
2018-04-19T00:08:12.461Z,12.88
2018-04-19T00:09:12.560Z,12.84
2018-04-19T00:10:12.655Z,12.81
2018-04-19T00:11:12.746Z,12.81
2018-04-19T00:12:12.842Z,12.74
2018-04-19T00:13:12.938Z,12.79
2018-04-19T00:14:13.029Z,12.79
2018-04-19T00:15:13.122Z,12.82
2018-04-19T00:16:13.216Z,12.84
2018-04-19T00:17:13.310Z,12.79
2018-04-19T00:18:13.406Z,12.70
2018-04-19T00:19:13.501Z,12.57
2018-04-19T00:20:13.593Z,12.46
2018-04-19T00:21:13.687Z,12.46
2018-04-19T00:22:13.782Z,12.51
2018-04-19T00:23:13.876Z,12.46
2018-04-19T00:24:13.971Z,12.56
2018-04-19T00:25:14.063Z,12.48
2018-04-19T00:26:14.159Z,12.41
2018-04-19T00:27:14.257Z,12.42
2018-04-19T00:28:14.349Z,12.42
2018-04-19T00:29:14.442Z,12.27
2018-04-19T00:30:14.541Z,12.19
2018-04-19T00:31:14.634Z,12.20
2018-04-19T00:32:14.726Z,12.20
2018-04-19T00:33:14.839Z,12.09
2018-04-19T00:34:14.938Z,12.13
2018-04-19T00:35:15.031Z,12.30
2018-04-19T00:36:15.129Z,12.26
2018-04-19T00:37:15.226Z,12.37
2018-04-19T00:38:15.322Z,12.37
2018-04-19T00:39:15.411Z,12.42
2018-04-19T00:40:15.504Z,12.29
2018-04-19T00:41:15.595Z,12.38
2018-04-19T00:42:15.691Z,12.39
2018-04-19T00:43:15.786Z,12.33
2018-04-19T00:44:15.884Z,12.42
2018-04-19T00:45:15.975Z,12.39
2018-04-19T00:46:16.075Z,12.39
2018-04-19T00:47:16.168Z,12.44
2018-04-19T00:48:16.266Z,12.38
2018-04-19T00:49:16.357Z,12.42
2018-04-19T00:50:16.447Z,12.31
2018-04-19T00:51:16.548Z,12.34
2018-04-19T00:52:16.641Z,12.34
2018-04-19T00:53:16.735Z,12.44
2018-04-19T00:54:16.834Z,12.39
2018-04-19T00:55:16.928Z,12.33
2018-04-19T00:56:17.023Z,12.42
2018-04-19T00:57:17.116Z,12.45
2018-04-19T00:58:17.212Z,12.29
2018-04-19T00:59:17.305Z,12.46
2018-04-19T01:00:17.398Z,12.45
2018-04-19T01:01:17.492Z,12.37
2018-04-19T01:02:17.586Z,12.30
2018-04-19T01:03:17.679Z,12.42
2018-04-19T01:04:17.774Z,12.45
2018-04-19T01:05:17.872Z,12.44
2018-04-19T01:06:17.968Z,12.27
2018-04-19T01:07:18.064Z,12.38
2018-04-19T01:08:18.162Z,12.38
2018-04-19T01:09:18.255Z,12.38
2018-04-19T01:10:18.425Z,12.45
2018-04-19T01:11:18.468Z,12.31
2018-04-19T01:12:18.539Z,12.30
2018-04-19T01:13:18.628Z,12.34
2018-04-19T01:14:18.723Z,12.38
2018-04-19T01:15:18.817Z,12.27
2018-04-19T01:16:18.913Z,12.27
2018-04-19T01:17:19.008Z,12.30
2018-04-19T01:18:19.101Z,12.23
2018-04-19T01:19:19.213Z,12.15
2018-04-19T01:20:19.309Z,12.19
2018-04-19T01:21:19.403Z,12.20
2018-04-19T01:22:19.497Z,12.16
2018-04-19T01:23:19.592Z,12.15
2018-04-19T01:24:19.690Z,12.15
2018-04-19T01:25:19.789Z,12.16
2018-04-19T01:26:19.882Z,12.11
2018-04-19T01:27:19.978Z,12.04
2018-04-19T01:28:20.074Z,11.96
2018-04-19T01:29:20.167Z,11.97
2018-04-19T01:30:20.263Z,12.05
2018-04-19T01:31:20.354Z,11.94
2018-04-19T01:32:20.449Z,12.01
2018-04-19T01:33:20.545Z,11.99
2018-04-19T01:34:20.635Z,11.99
2018-04-19T01:35:20.731Z,11.97
2018-04-19T01:36:20.822Z,11.89
2018-04-19T01:37:20.914Z,11.93
2018-04-19T01:38:21.006Z,11.97
2018-04-19T01:39:21.103Z,11.94
2018-04-19T01:40:21.201Z,11.87
2018-04-19T01:41:21.291Z,11.86
2018-04-19T01:42:21.382Z,11.86
2018-04-19T01:43:21.474Z,11.86
2018-04-19T01:44:21.573Z,11.82
2018-04-19T01:45:21.672Z,11.78
2018-04-19T01:46:21.765Z,11.82
2018-04-19T01:47:21.864Z,11.70
2018-04-19T01:48:21.960Z,11.68
2018-04-19T01:49:22.060Z,11.64
2018-04-19T01:50:22.148Z,11.75
2018-04-19T01:51:22.241Z,11.78
2018-04-19T01:52:22.338Z,11.62
2018-04-19T01:53:22.431Z,11.68
2018-04-19T01:54:22.523Z,11.61
2018-04-19T01:55:22.621Z,11.61
2018-04-19T01:56:22.714Z,11.59
2018-04-19T01:57:22.807Z,11.62
2018-04-19T01:58:22.898Z,11.57
2018-04-19T01:59:22.995Z,11.54
2018-04-19T02:00:23.092Z,11.49
2018-04-19T02:01:23.188Z,11.46
2018-04-19T02:02:23.282Z,11.53
2018-04-19T02:03:23.378Z,11.50
2018-04-19T02:04:23.477Z,11.52
2018-04-19T02:05:23.568Z,11.43
2018-04-19T02:06:23.661Z,11.47
2018-04-19T02:07:23.757Z,11.44
2018-04-19T02:08:23.849Z,11.41
2018-04-19T02:09:23.942Z,11.52
2018-04-19T02:10:24.040Z,11.41
2018-04-19T02:11:24.127Z,11.46
2018-04-19T02:12:24.224Z,11.29
2018-04-19T02:13:24.318Z,11.41
2018-04-19T02:14:24.415Z,11.41
2018-04-19T02:15:24.507Z,11.36
2018-04-19T02:16:24.607Z,11.35
2018-04-19T02:17:24.698Z,11.35
2018-04-19T02:18:24.788Z,11.36
2018-04-19T02:19:24.885Z,11.39
2018-04-19T02:20:24.975Z,11.36
2018-04-19T02:21:25.067Z,11.38
2018-04-19T02:22:25.144Z,11.38
2018-04-19T02:23:25.231Z,11.38
2018-04-19T02:24:26.337Z,11.29
2018-04-19T02:25:25.424Z,11.36
2018-04-19T02:26:25.521Z,11.27
2018-04-19T02:27:25.615Z,11.27
2018-04-19T02:28:25.722Z,11.38
2018-04-19T02:29:25.836Z,11.29
2018-04-19T02:30:25.893Z,11.27
2018-04-19T02:31:26.048Z,11.27
2018-04-19T02:32:26.137Z,11.25
2018-04-19T02:33:26.220Z,11.24
2018-04-19T02:34:26.317Z,11.20
2018-04-19T02:35:26.427Z,11.19
2018-04-19T02:36:26.531Z,11.19
2018-04-19T02:37:26.656Z,11.01
2018-04-19T02:38:26.745Z,10.99
2018-04-19T02:39:26.836Z,10.99
2018-04-19T02:40:26.916Z,11.02
2018-04-19T02:41:27.006Z,11.02
2018-04-19T02:42:27.157Z,11.02
2018-04-19T02:43:27.252Z,11.03
2018-04-19T02:44:27.324Z,10.99
2018-04-19T02:45:27.433Z,10.96
2018-04-19T02:46:27.539Z,10.95
2018-04-19T02:47:27.622Z,10.98
2018-04-19T02:48:27.790Z,10.94
2018-04-19T02:49:27.742Z,10.94
2018-04-19T02:50:27.849Z,10.96
2018-04-19T02:51:27.917Z,10.94
2018-04-19T02:52:28.029Z,11.01
2018-04-19T02:53:28.110Z,10.96
2018-04-19T02:54:28.211Z,10.80
2018-04-19T02:55:28.311Z,10.92
2018-04-19T02:56:28.399Z,10.91
2018-04-19T02:57:28.484Z,10.83
2018-04-19T02:58:28.574Z,10.77
2018-04-19T02:59:28.680Z,10.86
2018-04-19T03:00:28.768Z,10.81
2018-04-19T03:01:28.852Z,10.83
2018-04-19T03:02:28.945Z,10.86
2018-04-19T03:03:29.037Z,10.83
2018-04-19T03:04:29.132Z,10.74
2018-04-19T03:05:29.220Z,10.78
2018-04-19T03:06:29.324Z,10.77
2018-04-19T03:07:29.407Z,10.73
2018-04-19T03:08:29.516Z,10.68
2018-04-19T03:09:29.649Z,10.65
2018-04-19T03:10:29.732Z,10.80
2018-04-19T03:11:29.912Z,10.80
2018-04-19T03:12:29.873Z,10.71
2018-04-19T03:13:29.981Z,10.73
2018-04-19T03:14:30.064Z,10.74
2018-04-19T03:15:30.152Z,10.73
2018-04-19T03:16:30.236Z,10.71
2018-04-19T03:17:30.319Z,10.74
2018-04-19T03:18:30.418Z,10.65
2018-04-19T03:19:30.535Z,10.70
2018-04-19T03:20:30.679Z,10.78
2018-04-19T03:21:30.703Z,10.73
2018-04-19T03:22:30.795Z,10.68
2018-04-19T03:23:30.898Z,10.59
2018-04-19T03:24:30.978Z,10.52
2018-04-19T03:25:31.072Z,10.52
2018-04-19T03:26:31.165Z,10.53
2018-04-19T03:27:31.263Z,10.58
2018-04-19T03:28:31.349Z,10.47
2018-04-19T03:29:31.432Z,10.56
2018-04-19T03:30:31.554Z,10.55
2018-04-19T03:31:31.645Z,10.47
2018-04-19T03:32:31.729Z,10.46
2018-04-19T03:33:31.825Z,10.39
2018-04-19T03:34:31.917Z,10.40
2018-04-19T03:35:32.047Z,10.47
2018-04-19T03:36:32.129Z,10.37
2018-04-19T03:37:32.215Z,10.40
2018-04-19T03:38:32.310Z,10.37
2018-04-19T03:39:32.398Z,10.37
2018-04-19T03:40:32.488Z,10.39
2018-04-19T03:41:32.578Z,10.36
2018-04-19T03:42:32.671Z,10.33
2018-04-19T03:43:32.774Z,10.37
2018-04-19T03:44:32.861Z,10.33
2018-04-19T03:45:32.954Z,10.32
2018-04-19T03:46:33.076Z,10.39
2018-04-19T03:47:33.158Z,10.30
2018-04-19T03:48:33.298Z,10.32
2018-04-19T03:49:33.360Z,10.39
2018-04-19T03:50:33.488Z,10.32
2018-04-19T03:51:33.586Z,10.36
2018-04-19T03:52:33.701Z,10.34
2018-04-19T03:53:33.796Z,10.34
2018-04-19T03:54:33.907Z,10.39
2018-04-19T03:55:34.003Z,10.36
2018-04-19T03:56:34.091Z,10.36
2018-04-19T03:57:34.187Z,10.44
2018-04-19T03:58:34.285Z,10.36
2018-04-19T03:59:34.383Z,10.37
2018-04-19T04:00:34.475Z,10.30
2018-04-19T04:01:34.607Z,10.37
2018-04-19T04:02:34.730Z,10.36
2018-04-19T04:03:34.819Z,10.36
2018-04-19T04:04:34.915Z,10.25
2018-04-19T04:05:35.011Z,10.21
2018-04-19T04:06:35.144Z,10.24
2018-04-19T04:07:35.242Z,10.22
2018-04-19T04:08:35.324Z,10.24
2018-04-19T04:09:35.415Z,10.33
2018-04-19T04:10:35.506Z,10.24
2018-04-19T04:11:35.678Z,10.21
2018-04-19T04:12:35.728Z,10.17
2018-04-19T04:13:35.817Z,10.12
2018-04-19T04:14:35.903Z,10.04
2018-04-19T04:15:35.988Z,10.07
2018-04-19T04:16:36.076Z,10.10
2018-04-19T04:17:36.162Z,10.12
2018-04-19T04:18:36.240Z,10.04
2018-04-19T04:19:36.342Z,10.03
2018-04-19T04:20:36.421Z,10.03
2018-04-19T04:21:36.516Z,10.00
2018-04-19T04:22:36.597Z,9.99
2018-04-19T04:23:36.683Z,10.06
2018-04-19T04:24:36.780Z,10.04
2018-04-19T04:25:36.868Z,9.96
2018-04-19T04:26:36.963Z,9.96
2018-04-19T04:27:37.057Z,10.00
2018-04-19T04:28:37.153Z,10.04
2018-04-19T04:29:37.246Z,10.01
2018-04-19T04:30:37.341Z,9.97
2018-04-19T04:31:37.478Z,9.97
2018-04-19T04:32:37.571Z,10.04
2018-04-19T04:33:37.664Z,9.99
2018-04-19T04:34:37.755Z,10.00
2018-04-19T04:35:37.860Z,9.99
2018-04-19T04:36:38.003Z,10.07
2018-04-19T04:37:38.094Z,10.04
2018-04-19T04:38:38.186Z,10.04
2018-04-19T04:39:38.287Z,9.93
2018-04-19T04:40:38.379Z,10.00
2018-04-19T04:41:38.473Z,9.96
2018-04-19T04:42:38.566Z,10.04
2018-04-19T04:43:38.657Z,10.03
2018-04-19T04:44:38.751Z,9.99
2018-04-19T04:45:38.856Z,10.01
2018-04-19T04:46:38.946Z,10.06
2018-04-19T04:47:39.034Z,10.04
2018-04-19T04:48:39.133Z,10.04
2018-04-19T04:49:39.227Z,10.04
2018-04-19T04:50:39.320Z,9.94
2018-04-19T04:51:39.418Z,10.00
2018-04-19T04:52:39.509Z,10.04
2018-04-19T04:53:39.605Z,10.00
2018-04-19T04:54:39.695Z,10.03
2018-04-19T04:55:39.792Z,9.99
2018-04-19T04:56:39.888Z,9.88
2018-04-19T04:57:39.971Z,9.89
2018-04-19T04:58:40.065Z,9.99
2018-04-19T04:59:40.157Z,10.01
2018-04-19T05:00:40.248Z,10.06
2018-04-19T05:01:40.333Z,9.97
2018-04-19T05:02:40.421Z,9.94
2018-04-19T05:03:40.527Z,9.96
2018-04-19T05:04:40.631Z,10.03
2018-04-19T05:05:40.747Z,9.91
2018-04-19T05:06:40.804Z,9.99
2018-04-19T05:07:40.904Z,10.00
2018-04-19T05:08:40.994Z,10.03
2018-04-19T05:09:41.091Z,9.99
2018-04-19T05:10:41.187Z,10.00
2018-04-19T05:11:41.282Z,9.96
2018-04-19T05:12:41.378Z,10.04
2018-04-19T05:13:41.471Z,10.03
2018-04-19T05:14:41.564Z,10.06
2018-04-19T05:15:41.661Z,10.06
2018-04-19T05:16:41.751Z,10.09
2018-04-19T05:17:41.845Z,10.09
2018-04-19T05:18:41.941Z,10.15
2018-04-19T05:19:42.038Z,10.09
2018-04-19T05:20:42.127Z,10.09
2018-04-19T05:21:42.220Z,10.14
2018-04-19T05:22:42.321Z,10.10
2018-04-19T05:23:42.410Z,10.19
2018-04-19T05:24:42.501Z,10.18
2018-04-19T05:25:42.584Z,10.22
2018-04-19T05:26:42.692Z,10.32
2018-04-19T05:27:42.790Z,10.33
2018-04-19T05:28:42.882Z,10.28
2018-04-19T05:29:42.982Z,10.32
2018-04-19T05:30:43.076Z,10.40
2018-04-19T05:31:43.196Z,10.42
2018-04-19T05:32:43.282Z,10.42
2018-04-19T05:33:43.369Z,10.46
2018-04-19T05:34:43.461Z,10.40
2018-04-19T05:35:43.556Z,10.52
2018-04-19T05:36:43.648Z,10.47
2018-04-19T05:37:43.748Z,10.37
2018-04-19T05:38:43.860Z,10.56
2018-04-19T05:39:43.955Z,10.53
2018-04-19T05:40:44.053Z,10.56
2018-04-19T05:41:44.151Z,10.56
2018-04-19T05:42:44.247Z,10.59
2018-04-19T05:43:44.340Z,10.65
2018-04-19T05:44:44.435Z,10.70
2018-04-19T05:45:44.529Z,10.73
2018-04-19T05:46:44.624Z,10.65
2018-04-19T05:47:44.716Z,10.73
2018-04-19T05:48:44.812Z,10.74
2018-04-19T05:49:44.907Z,10.63
2018-04-19T05:50:45.005Z,10.55
2018-04-19T05:51:45.101Z,10.42
2018-04-19T05:52:45.197Z,10.65
2018-04-19T05:53:45.292Z,10.55
2018-04-19T05:54:45.389Z,10.65
2018-04-19T05:55:45.482Z,10.71
2018-04-19T05:56:45.579Z,10.73
2018-04-19T05:57:45.674Z,10.78
2018-04-19T05:58:45.784Z,10.86
2018-04-19T05:59:45.868Z,10.96
2018-04-19T06:00:45.966Z,11.32
2018-04-19T06:01:46.064Z,11.67
2018-04-19T06:02:46.163Z,12.24
2018-04-19T06:03:46.290Z,12.85
2018-04-19T06:04:46.374Z,13.41
2018-04-19T06:05:46.470Z,13.80
2018-04-19T06:06:46.569Z,14.02
2018-04-19T06:07:46.666Z,14.21
2018-04-19T06:08:46.765Z,14.27
2018-04-19T06:09:46.864Z,14.49
2018-04-19T06:10:46.959Z,14.99
2018-04-19T06:11:47.055Z,15.39
2018-04-19T06:12:47.156Z,15.79
2018-04-19T06:13:47.249Z,16.22
2018-04-19T06:14:47.348Z,16.50
2018-04-19T06:15:47.453Z,16.74
2018-04-19T06:16:47.556Z,17.18
2018-04-19T06:17:47.654Z,17.30
2018-04-19T06:18:47.758Z,17.54
2018-04-19T06:19:47.845Z,17.89
2018-04-19T06:20:47.931Z,18.12
2018-04-19T06:21:48.027Z,18.46
2018-04-19T06:22:48.121Z,18.54
2018-04-19T06:23:48.232Z,18.50
2018-04-19T06:24:48.320Z,18.61
2018-04-19T06:25:48.411Z,18.98
2018-04-19T06:26:48.532Z,19.10
2018-04-19T06:27:48.634Z,19.36
2018-04-19T06:28:48.740Z,19.50
2018-04-19T06:29:48.849Z,19.75
2018-04-19T06:30:48.968Z,19.97
2018-04-19T06:31:49.067Z,20.13
2018-04-19T06:32:49.159Z,20.21
2018-04-19T06:33:49.260Z,20.12
2018-04-19T06:34:49.358Z,20.20
2018-04-19T06:35:49.455Z,20.28
2018-04-19T06:36:49.774Z,20.27
2018-04-19T06:37:49.624Z,20.09
2018-04-19T06:38:49.771Z,20.28
2018-04-19T06:39:49.804Z,20.49
2018-04-19T06:40:49.906Z,20.65
2018-04-19T06:41:50.012Z,20.80
2018-04-19T06:42:50.212Z,20.74
2018-04-19T06:43:50.192Z,20.86
2018-04-19T06:44:50.374Z,20.91
2018-04-19T06:45:50.411Z,20.69
2018-04-19T06:46:50.553Z,20.46
2018-04-19T06:47:50.657Z,20.20
2018-04-19T06:48:50.794Z,20.23
2018-04-19T06:49:50.898Z,20.30
2018-04-19T06:50:50.999Z,20.56
2018-04-19T06:51:51.108Z,20.61
2018-04-19T06:52:51.211Z,20.65
2018-04-19T06:53:51.311Z,20.80
2018-04-19T06:54:51.421Z,20.87
2018-04-19T06:55:51.606Z,20.93
2018-04-19T06:56:51.590Z,20.86
2018-04-19T06:57:51.691Z,20.96
2018-04-19T06:58:51.791Z,21.01
2018-04-19T06:59:51.898Z,21.08
2018-04-19T07:00:52.003Z,21.13
2018-04-19T07:01:52.101Z,21.19
2018-04-19T07:02:52.208Z,21.20
2018-04-19T07:03:52.309Z,21.04
2018-04-19T07:04:52.411Z,21.05
2018-04-19T07:05:52.521Z,21.08
2018-04-19T07:06:52.623Z,21.08
2018-04-19T07:07:52.727Z,20.90
2018-04-19T07:08:52.842Z,20.98
2018-04-19T07:09:52.943Z,20.90
2018-04-19T07:10:53.048Z,20.89
2018-04-19T07:11:53.154Z,20.87
2018-04-19T07:12:53.256Z,20.91
2018-04-19T07:13:53.373Z,20.81
2018-04-19T07:14:53.479Z,20.72
2018-04-19T07:15:53.594Z,20.64
2018-04-19T07:16:53.702Z,20.66
2018-04-19T07:17:53.805Z,20.59
2018-04-19T07:18:53.909Z,20.51
2018-04-19T07:19:54.018Z,20.41
2018-04-19T07:20:54.125Z,20.38
2018-04-19T07:21:54.238Z,20.41
2018-04-19T07:22:54.339Z,20.47
2018-04-19T07:23:54.434Z,20.46
2018-04-19T07:24:54.536Z,20.33
2018-04-19T07:25:54.639Z,20.27
2018-04-19T07:26:54.744Z,20.35
2018-04-19T07:27:54.850Z,20.41
2018-04-19T07:28:54.955Z,20.39
2018-04-19T07:29:55.072Z,20.42
2018-04-19T07:30:55.152Z,20.49
2018-04-19T07:31:55.248Z,20.49
2018-04-19T07:32:55.354Z,20.39
2018-04-19T07:33:55.492Z,20.54
2018-04-19T07:34:55.599Z,20.53
2018-04-19T07:35:55.758Z,20.59
2018-04-19T07:36:55.744Z,20.62
2018-04-19T07:37:55.849Z,20.59
2018-04-19T07:38:55.955Z,20.58
2018-04-19T07:39:56.088Z,20.62
2018-04-19T07:40:56.186Z,20.68
2018-04-19T07:41:56.275Z,20.72
2018-04-19T07:42:56.393Z,20.80
2018-04-19T07:43:56.496Z,20.90
2018-04-19T07:44:56.621Z,20.93
2018-04-19T07:45:56.794Z,21.01
2018-04-19T07:46:56.903Z,20.87
2018-04-19T07:47:57.047Z,20.90
2018-04-19T07:48:57.147Z,20.66
2018-04-19T07:49:57.289Z,20.38
2018-04-19T07:50:57.326Z,20.23
2018-04-19T07:51:57.475Z,20.28
2018-04-19T07:52:57.570Z,20.34
2018-04-19T07:53:57.663Z,20.54
2018-04-19T07:54:57.770Z,20.47
2018-04-19T07:55:57.891Z,20.43
2018-04-19T07:56:58.008Z,20.46
2018-04-19T07:57:58.174Z,20.38
2018-04-19T07:58:58.245Z,20.51
2018-04-19T07:59:58.310Z,20.53
2018-04-19T08:00:58.393Z,20.58
2018-04-19T08:01:58.499Z,20.65
2018-04-19T08:02:58.625Z,20.65
2018-04-19T08:03:58.744Z,20.66
2018-04-19T08:04:58.881Z,20.76
2018-04-19T08:05:59.010Z,20.77
2018-04-19T08:06:59.192Z,20.84
2018-04-19T08:07:59.305Z,20.83
2018-04-19T08:08:59.391Z,20.90
2018-04-19T08:09:59.431Z,20.95
2018-04-19T08:10:59.579Z,21.01
2018-04-19T08:11:59.743Z,20.98
2018-04-19T08:12:59.799Z,21.01
2018-04-19T08:13:59.794Z,21.11
2018-04-19T08:14:59.882Z,21.05
2018-04-19T08:16:00.128Z,21.19
2018-04-19T08:17:00.109Z,21.24
2018-04-19T08:18:00.202Z,21.14
2018-04-19T08:19:00.371Z,21.13
2018-04-19T08:20:00.358Z,21.04
2018-04-19T08:21:00.453Z,21.05
2018-04-19T08:22:00.560Z,20.93
2018-04-19T08:23:00.654Z,21.05
2018-04-19T08:24:00.779Z,21.20
2018-04-19T08:25:00.893Z,21.24
2018-04-19T08:26:00.989Z,21.27
2018-04-19T08:27:01.151Z,21.39
2018-04-19T08:28:01.245Z,21.21
2018-04-19T08:29:01.702Z,21.44
2018-04-19T08:30:01.668Z,21.46
2018-04-19T08:31:01.486Z,21.66
2018-04-19T08:32:01.623Z,21.71
2018-04-19T08:33:01.729Z,21.71
2018-04-19T08:34:01.831Z,21.46
2018-04-19T08:35:01.934Z,21.44
2018-04-19T08:36:02.075Z,21.61
2018-04-19T08:37:02.173Z,21.67
2018-04-19T08:38:02.268Z,21.71
2018-04-19T08:39:02.391Z,21.76
2018-04-19T08:40:02.556Z,21.78
2018-04-19T08:41:02.641Z,21.69
2018-04-19T08:42:02.732Z,21.76
2018-04-19T08:43:02.833Z,21.94
2018-04-19T08:44:02.986Z,21.98
2018-04-19T08:45:03.171Z,22.04
2018-04-19T08:46:03.129Z,22.09
2018-04-19T08:47:03.308Z,22.19
2018-04-19T08:48:03.290Z,22.28
2018-04-19T08:49:03.510Z,22.35
2018-04-19T08:50:03.479Z,22.49
2018-04-19T08:51:03.764Z,22.53
2018-04-19T08:52:03.643Z,22.54
2018-04-19T08:53:03.735Z,22.67
2018-04-19T08:54:05.349Z,22.59
2018-04-19T08:55:06.250Z,22.53
2018-04-19T08:56:04.200Z,22.57
2018-04-19T08:57:04.183Z,22.52
2018-04-19T08:58:04.437Z,22.68
2018-04-19T08:59:04.545Z,22.77
2018-04-19T09:00:04.531Z,22.90
2018-04-19T09:01:04.521Z,23.04
2018-04-19T09:02:04.679Z,22.87
2018-04-19T09:03:04.765Z,22.77
2018-04-19T09:04:04.874Z,22.77
2018-04-19T09:05:05.091Z,22.72
2018-04-19T09:06:05.018Z,22.78
2018-04-19T09:07:05.134Z,22.87
2018-04-19T09:08:05.228Z,22.97
2018-04-19T09:09:05.379Z,23.05
2018-04-19T09:10:06.423Z,23.17
2018-04-19T09:11:05.554Z,22.99
2018-04-19T09:12:05.696Z,23.08
2018-04-19T09:13:05.773Z,23.17
2018-04-19T09:14:06.072Z,23.32
2018-04-19T09:15:06.052Z,23.42
2018-04-19T09:16:06.027Z,23.53
2018-04-19T09:17:06.152Z,23.47
2018-04-19T09:18:06.361Z,23.49
2018-04-19T09:19:06.357Z,23.61
2018-04-19T09:20:06.489Z,23.71
2018-04-19T09:21:07.504Z,23.75
2018-04-19T09:22:06.732Z,23.72
2018-04-19T09:23:07.139Z,23.76
2018-04-19T09:24:07.056Z,23.87
2018-04-19T09:25:07.027Z,23.95
2018-04-19T09:26:07.116Z,24.12
2018-04-19T09:27:07.225Z,24.14
2018-04-19T09:28:07.357Z,24.27
2018-04-19T09:29:07.453Z,24.35
2018-04-19T09:30:07.621Z,24.31
2018-04-19T09:31:07.720Z,24.31
2018-04-19T09:32:07.851Z,24.35
2018-04-19T09:33:07.977Z,24.32
2018-04-19T09:34:08.118Z,24.38
2018-04-19T09:35:08.223Z,24.53
2018-04-19T09:36:08.316Z,24.57
2018-04-19T09:37:08.409Z,24.68
2018-04-19T09:38:08.625Z,24.79
2018-04-19T09:39:08.608Z,24.91
2018-04-19T09:40:08.691Z,24.91
2018-04-19T09:41:08.761Z,24.92
2018-04-19T09:42:08.889Z,25.05
2018-04-19T09:43:08.991Z,25.09
2018-04-19T09:44:09.106Z,25.16
2018-04-19T09:45:09.216Z,25.25
2018-04-19T09:46:09.303Z,25.30
2018-04-19T09:47:09.627Z,25.32
2018-04-19T09:48:09.484Z,25.25
2018-04-19T09:49:09.584Z,25.25
2018-04-19T09:50:09.736Z,25.35
2018-04-19T09:51:09.949Z,25.39
2018-04-19T09:52:09.794Z,25.50
2018-04-19T09:53:09.929Z,25.47
2018-04-19T09:54:10.088Z,25.43
2018-04-19T09:55:10.155Z,25.43
2018-04-19T09:56:10.320Z,25.46
2018-04-19T09:57:10.447Z,25.39
2018-04-19T09:58:10.554Z,25.53
2018-04-19T09:59:10.706Z,25.52
2018-04-19T10:00:10.780Z,25.61
2018-04-19T10:01:10.885Z,25.52
2018-04-19T10:02:10.987Z,25.28
2018-04-19T10:03:11.098Z,25.16
2018-04-19T10:04:11.208Z,25.34
2018-04-19T10:05:11.311Z,25.43
2018-04-19T10:06:11.463Z,25.53
2018-04-19T10:07:11.565Z,25.68
2018-04-19T10:08:11.667Z,25.69
2018-04-19T10:09:11.780Z,25.71
2018-04-19T10:10:11.884Z,25.84
2018-04-19T10:11:11.995Z,25.83
2018-04-19T10:12:12.107Z,25.90
2018-04-19T10:13:13.287Z,25.97
2018-04-19T10:14:12.263Z,25.91
2018-04-19T10:15:12.369Z,25.84
2018-04-19T10:16:12.473Z,25.93
2018-04-19T10:17:12.598Z,25.80
2018-04-19T10:18:12.693Z,25.87
2018-04-19T10:19:12.795Z,26.04
2018-04-19T10:20:12.901Z,26.02
2018-04-19T10:21:13.068Z,26.01
2018-04-19T10:22:13.110Z,26.04
2018-04-19T10:23:13.209Z,26.18
2018-04-19T10:24:13.312Z,26.20
2018-04-19T10:25:13.410Z,26.24
2018-04-19T10:26:13.513Z,26.29
2018-04-19T10:27:13.616Z,26.39
2018-04-19T10:28:13.725Z,26.31
2018-04-19T10:29:13.832Z,26.36
2018-04-19T10:30:13.950Z,26.35
2018-04-19T10:31:14.055Z,26.31
2018-04-19T10:32:14.208Z,26.35
2018-04-19T10:33:14.274Z,26.36
2018-04-19T10:34:14.374Z,26.28
2018-04-19T10:35:14.570Z,26.37
2018-04-19T10:36:14.588Z,26.40
2018-04-19T10:37:14.696Z,26.46
2018-04-19T10:38:14.806Z,26.50
2018-04-19T10:39:14.911Z,26.49
2018-04-19T10:40:15.022Z,26.55
2018-04-19T10:41:15.145Z,26.57
2018-04-19T10:42:15.232Z,26.59
2018-04-19T10:43:15.336Z,26.59
2018-04-19T10:44:15.440Z,26.58
2018-04-19T10:45:15.547Z,26.64
2018-04-19T10:46:15.654Z,26.65
2018-04-19T10:47:15.763Z,26.69
2018-04-19T10:48:15.864Z,26.72
2018-04-19T10:49:15.966Z,26.87
2018-04-19T10:50:16.065Z,26.84
2018-04-19T10:51:16.170Z,26.86
2018-04-19T10:52:16.276Z,26.74
2018-04-19T10:53:16.379Z,26.65
2018-04-19T10:54:16.476Z,26.59
2018-04-19T10:55:16.595Z,26.77
2018-04-19T10:56:16.695Z,26.77
2018-04-19T10:57:16.799Z,26.73
2018-04-19T10:58:16.908Z,26.77
2018-04-19T10:59:17.009Z,26.62
2018-04-19T11:00:17.119Z,26.76
2018-04-19T11:01:17.247Z,26.73
2018-04-19T11:02:17.350Z,26.74
2018-04-19T11:03:17.453Z,26.79
2018-04-19T11:04:17.559Z,26.87
2018-04-19T11:05:17.668Z,26.80
2018-04-19T11:06:17.769Z,26.64
2018-04-19T11:07:17.875Z,26.31
2018-04-19T11:08:17.982Z,26.49
2018-04-19T11:09:18.085Z,26.49
2018-04-19T11:10:18.196Z,26.09
2018-04-19T11:11:18.298Z,26.15
2018-04-19T11:12:18.401Z,26.15
2018-04-19T11:13:18.507Z,26.29
2018-04-19T11:14:18.613Z,26.21
2018-04-19T11:15:18.712Z,26.12
2018-04-19T11:16:18.812Z,26.04
2018-04-19T11:17:18.940Z,26.12
2018-04-19T11:18:19.047Z,26.35
2018-04-19T11:19:19.149Z,26.32
2018-04-19T11:20:19.255Z,26.47
2018-04-19T11:21:19.361Z,26.52
2018-04-19T11:22:19.466Z,26.59
2018-04-19T11:23:19.576Z,26.67
2018-04-19T11:24:19.685Z,26.77
2018-04-19T11:25:19.780Z,27.01
2018-04-19T11:26:19.899Z,26.98
2018-04-19T11:27:20.006Z,26.91
2018-04-19T11:28:20.112Z,26.80
2018-04-19T11:29:20.218Z,26.52
2018-04-19T11:30:20.327Z,26.43
2018-04-19T11:31:20.430Z,26.47
2018-04-19T11:32:20.534Z,26.54
2018-04-19T11:33:20.644Z,26.64
2018-04-19T11:34:20.747Z,26.77
2018-04-19T11:35:20.849Z,26.57
2018-04-19T11:36:20.958Z,26.58
2018-04-19T11:37:21.060Z,26.57
2018-04-19T11:38:21.164Z,26.64
2018-04-19T11:39:21.274Z,26.74
2018-04-19T11:40:21.378Z,26.86
2018-04-19T11:41:21.480Z,26.96
2018-04-19T11:42:21.590Z,27.02
2018-04-19T11:43:21.696Z,27.04
2018-04-19T11:44:21.810Z,27.14
2018-04-19T11:45:21.919Z,27.17
2018-04-19T11:46:22.026Z,27.21
2018-04-19T11:47:22.118Z,27.50
2018-04-19T11:48:22.221Z,27.43
2018-04-19T11:49:22.325Z,27.20
2018-04-19T11:50:22.437Z,27.23
2018-04-19T11:51:22.547Z,27.31
2018-04-19T11:52:22.647Z,27.36
2018-04-19T11:53:22.748Z,27.39
2018-04-19T11:54:22.855Z,27.43
2018-04-19T11:55:22.995Z,27.42
2018-04-19T11:56:23.063Z,27.57
2018-04-19T11:57:23.169Z,27.46
2018-04-19T11:58:23.277Z,27.53
2018-04-19T11:59:23.387Z,27.38
2018-04-19T12:00:23.506Z,27.41
2018-04-19T12:01:23.592Z,27.50
2018-04-19T12:02:23.696Z,27.10
2018-04-19T12:03:23.800Z,26.86
2018-04-19T12:04:23.914Z,26.89
2018-04-19T12:05:24.012Z,26.98
2018-04-19T12:06:24.119Z,27.04
2018-04-19T12:07:24.224Z,27.09
2018-04-19T12:08:24.328Z,27.35
2018-04-19T12:09:24.448Z,27.43
2018-04-19T12:10:24.532Z,27.48
2018-04-19T12:11:24.637Z,27.54
2018-04-19T12:12:24.749Z,27.61
2018-04-19T12:13:24.858Z,27.74
2018-04-19T12:14:24.964Z,27.79
2018-04-19T12:15:25.073Z,27.71
2018-04-19T12:16:25.190Z,27.80
2018-04-19T12:17:25.304Z,27.74
2018-04-19T12:18:25.419Z,27.79
2018-04-19T12:19:25.531Z,28.01
2018-04-19T12:20:25.655Z,27.95
2018-04-19T12:21:25.791Z,27.99
2018-04-19T12:22:25.912Z,27.95
2018-04-19T12:23:26.011Z,27.94
2018-04-19T12:24:26.139Z,27.95
2018-04-19T12:25:26.297Z,27.94
2018-04-19T12:26:26.369Z,28.09
2018-04-19T12:27:26.463Z,28.13
2018-04-19T12:28:26.594Z,28.11
2018-04-19T12:29:26.748Z,28.04
2018-04-19T12:30:26.881Z,28.14
2018-04-19T12:31:26.991Z,28.22
2018-04-19T12:32:27.099Z,28.10
2018-04-19T12:33:27.248Z,27.94
2018-04-19T12:34:27.427Z,28.07
2018-04-19T12:35:27.521Z,28.07
2018-04-19T12:36:27.649Z,28.09
2018-04-19T12:37:27.808Z,28.16
2018-04-19T12:38:27.941Z,28.11
2018-04-19T12:39:27.956Z,28.10
2018-04-19T12:40:28.051Z,28.22
2018-04-19T12:41:28.304Z,28.13
2018-04-19T12:42:28.306Z,27.96
2018-04-19T12:43:28.403Z,28.06
2018-04-19T12:44:28.494Z,28.07
2018-04-19T12:45:28.601Z,28.10
2018-04-19T12:46:28.752Z,28.13
2018-04-19T12:47:28.851Z,28.16
2018-04-19T12:48:28.951Z,28.16
2018-04-19T12:49:29.099Z,28.25
2018-04-19T12:50:29.215Z,28.29
2018-04-19T12:51:29.263Z,28.33
2018-04-19T12:52:29.390Z,28.43
2018-04-19T12:53:29.513Z,28.48
2018-04-19T12:54:29.636Z,28.48